createdAt,value
2017-03-18T00:00:11.635Z,0
2017-03-18T00:01:11.651Z,0
2017-03-18T00:02:11.318Z,0
2017-03-18T00:03:13.268Z,0
2017-03-18T00:04:11.617Z,0
2017-03-18T00:05:10.966Z,0
2017-03-18T00:06:12.721Z,0
2017-03-18T00:07:11.572Z,0
2017-03-18T00:08:11.567Z,0
2017-03-18T00:09:12.650Z,0
2017-03-18T00:10:11.214Z,0
2017-03-18T00:11:10.893Z,0
2017-03-18T00:12:11.296Z,0
2017-03-18T00:13:11.500Z,0
2017-03-18T00:14:11.182Z,0
2017-03-18T00:15:11.576Z,0
2017-03-18T00:16:11.450Z,0
2017-03-18T00:17:11.124Z,0
2017-03-18T00:18:11.072Z,0
2017-03-18T00:19:11.684Z,0
2017-03-18T00:20:12.600Z,0
2017-03-18T00:21:11.073Z,0
2017-03-18T00:22:11.666Z,0
2017-03-18T00:23:11.365Z,0
2017-03-18T00:24:11.045Z,0
2017-03-18T00:25:13.182Z,0
2017-03-18T00:26:11.327Z,0
2017-03-18T00:27:11.321Z,0
2017-03-18T00:28:12.876Z,0
2017-03-18T00:29:13.162Z,0
2017-03-18T00:30:10.951Z,0
2017-03-18T00:31:11.263Z,0
2017-03-18T00:32:12.259Z,0
2017-03-18T00:33:11.234Z,0
2017-03-18T00:34:10.907Z,0
2017-03-18T00:35:12.340Z,0
2017-03-18T00:36:10.881Z,0
2017-03-18T00:37:10.864Z,0
2017-03-18T00:38:11.941Z,0
2017-03-18T00:39:11.158Z,0
2017-03-18T00:40:11.141Z,0
2017-03-18T00:41:12.226Z,0
2017-03-18T00:42:10.806Z,0
2017-03-18T00:43:11.108Z,0
2017-03-18T00:44:11.939Z,0
2017-03-18T00:45:10.131Z,0
2017-03-18T00:46:10.749Z,0
2017-03-18T00:47:11.818Z,0
2017-03-18T00:48:11.044Z,0
2017-03-18T00:49:10.713Z,0
2017-03-18T00:50:11.994Z,0
2017-03-18T00:51:10.680Z,0
2017-03-18T00:52:10.356Z,0
2017-03-18T00:53:11.293Z,0
2017-03-18T00:54:10.331Z,0
2017-03-18T00:55:10.314Z,0
2017-03-18T00:56:10.641Z,0
2017-03-18T00:57:10.605Z,0
2017-03-18T00:58:10.909Z,0
2017-03-18T00:59:10.583Z,0
2017-03-18T01:00:10.600Z,0
2017-03-18T01:01:10.868Z,0
2017-03-18T01:02:10.853Z,0
2017-03-18T01:03:10.844Z,0
2017-03-18T01:04:10.833Z,0
2017-03-18T01:05:10.500Z,0
2017-03-18T01:06:10.805Z,0
2017-03-18T01:07:10.793Z,0
2017-03-18T01:08:10.466Z,0
2017-03-18T01:09:10.788Z,0
2017-03-18T01:10:10.117Z,0
2017-03-18T01:11:10.415Z,0
2017-03-18T01:12:10.407Z,0
2017-03-18T01:13:10.709Z,0
2017-03-18T01:14:10.694Z,0
2017-03-18T01:15:10.368Z,0
2017-03-18T01:16:10.696Z,0
2017-03-18T01:17:10.350Z,0
2017-03-18T01:18:10.014Z,0
2017-03-18T01:19:10.636Z,0
2017-03-18T01:20:09.989Z,0
2017-03-18T01:21:10.606Z,0
2017-03-18T01:22:10.586Z,0
2017-03-18T01:23:10.582Z,0
2017-03-18T01:24:10.249Z,0
2017-03-18T01:25:10.555Z,0
2017-03-18T01:26:10.539Z,0
2017-03-18T01:27:10.207Z,0
2017-03-18T01:28:10.220Z,0
2017-03-18T01:29:10.188Z,0
2017-03-18T01:30:10.479Z,0
2017-03-18T01:31:10.469Z,0
2017-03-18T01:32:09.833Z,0
2017-03-18T01:33:10.451Z,0
2017-03-18T01:34:09.802Z,0
2017-03-18T01:35:09.781Z,0
2017-03-18T01:36:10.094Z,0
2017-03-18T01:37:10.081Z,0
2017-03-18T01:38:10.057Z,0
2017-03-18T01:39:10.056Z,0
2017-03-18T01:40:10.032Z,0
2017-03-18T01:41:10.012Z,0
2017-03-18T01:42:10.342Z,0
2017-03-18T01:43:10.309Z,0
2017-03-18T01:44:10.291Z,0
2017-03-18T01:45:09.965Z,0
2017-03-18T01:46:09.977Z,0
2017-03-18T01:47:10.254Z,0
2017-03-18T01:48:10.244Z,0
2017-03-18T01:49:09.912Z,0
2017-03-18T01:50:10.209Z,0
2017-03-18T01:51:10.202Z,0
2017-03-18T01:52:09.871Z,0
2017-03-18T01:53:10.178Z,0
2017-03-18T01:54:10.165Z,0
2017-03-18T01:55:10.146Z,0
2017-03-18T01:56:10.155Z,0
2017-03-18T01:57:09.805Z,0
2017-03-18T01:58:10.102Z,0
2017-03-18T01:59:10.093Z,0
2017-03-18T02:00:10.077Z,0
2017-03-18T02:01:09.740Z,0
2017-03-18T02:02:09.417Z,0
2017-03-18T02:03:09.719Z,0
2017-03-18T02:04:09.720Z,0
2017-03-18T02:05:09.689Z,0
2017-03-18T02:06:09.676Z,0
2017-03-18T02:07:09.980Z,0
2017-03-18T02:08:09.966Z,0
2017-03-18T02:09:09.990Z,0
2017-03-18T02:10:09.648Z,0
2017-03-18T02:11:09.924Z,0
2017-03-18T02:12:09.603Z,0
2017-03-18T02:13:09.905Z,0
2017-03-18T02:14:09.572Z,0
2017-03-18T02:15:09.552Z,0
2017-03-18T02:16:09.860Z,0
2017-03-18T02:17:09.846Z,0
2017-03-18T02:18:09.855Z,0
2017-03-18T02:19:09.832Z,0
2017-03-18T02:20:09.805Z,0
2017-03-18T02:21:09.472Z,0
2017-03-18T02:22:08.832Z,0
2017-03-18T02:23:09.771Z,0
2017-03-18T02:24:09.112Z,0
2017-03-18T02:25:09.727Z,0
2017-03-18T02:26:09.703Z,0
2017-03-18T02:27:09.379Z,0
2017-03-18T02:28:09.685Z,0
2017-03-18T02:29:09.669Z,0
2017-03-18T02:30:09.342Z,0
2017-03-18T02:31:09.638Z,0
2017-03-18T02:32:09.028Z,0
2017-03-18T02:33:09.618Z,0
2017-03-18T02:34:09.303Z,0
2017-03-18T02:35:09.586Z,0
2017-03-18T02:36:08.938Z,0
2017-03-18T02:37:09.262Z,0
2017-03-18T02:38:09.227Z,0
2017-03-18T02:39:09.219Z,0
2017-03-18T02:40:09.216Z,0
2017-03-18T02:41:09.184Z,0
2017-03-18T02:42:09.170Z,0
2017-03-18T02:43:09.157Z,0
2017-03-18T02:44:09.153Z,0
2017-03-18T02:45:09.439Z,0
2017-03-18T02:46:09.110Z,0
2017-03-18T02:47:09.129Z,0
2017-03-18T02:48:09.406Z,0
2017-03-18T02:49:09.394Z,0
2017-03-18T02:50:09.059Z,0
2017-03-18T02:51:09.354Z,0
2017-03-18T02:52:09.339Z,0
2017-03-18T02:53:09.023Z,0
2017-03-18T02:54:09.005Z,0
2017-03-18T02:55:09.306Z,0
2017-03-18T02:56:08.967Z,0
2017-03-18T02:57:08.953Z,0
2017-03-18T02:58:09.252Z,0
2017-03-18T02:59:09.268Z,0
2017-03-18T03:00:09.232Z,0
2017-03-18T03:01:08.902Z,0
2017-03-18T03:02:08.889Z,0
2017-03-18T03:03:09.196Z,0
2017-03-18T03:04:08.868Z,0
2017-03-18T03:05:08.846Z,0
2017-03-18T03:06:08.832Z,0
2017-03-18T03:07:09.126Z,0
2017-03-18T03:08:09.123Z,0
2017-03-18T03:09:09.103Z,0
2017-03-18T03:10:08.771Z,0
2017-03-18T03:11:08.447Z,0
2017-03-18T03:12:08.753Z,0
2017-03-18T03:13:08.735Z,0
2017-03-18T03:14:09.034Z,0
2017-03-18T03:15:09.016Z,0
2017-03-18T03:16:09.001Z,0
2017-03-18T03:17:08.995Z,0
2017-03-18T03:18:08.978Z,0
2017-03-18T03:19:08.645Z,0
2017-03-18T03:20:08.626Z,0
2017-03-18T03:21:08.931Z,0
2017-03-18T03:22:08.607Z,0
2017-03-18T03:23:08.903Z,0
2017-03-18T03:24:08.890Z,0
2017-03-18T03:25:08.880Z,0
2017-03-18T03:26:08.542Z,0
2017-03-18T03:27:08.531Z,0
2017-03-18T03:28:08.838Z,0
2017-03-18T03:29:08.828Z,0
2017-03-18T03:30:08.488Z,0
2017-03-18T03:31:08.476Z,0
2017-03-18T03:32:08.779Z,0
2017-03-18T03:33:08.453Z,0
2017-03-18T03:34:08.751Z,0
2017-03-18T03:35:08.729Z,0
2017-03-18T03:36:08.750Z,0
2017-03-18T03:37:08.701Z,0
2017-03-18T03:38:08.690Z,0
2017-03-18T03:39:08.681Z,0
2017-03-18T03:40:08.658Z,0
2017-03-18T03:41:08.011Z,0
2017-03-18T03:42:08.626Z,0
2017-03-18T03:43:08.624Z,0
2017-03-18T03:44:08.615Z,0
2017-03-18T03:45:08.276Z,0
2017-03-18T03:46:08.258Z,0
2017-03-18T03:47:08.240Z,0
2017-03-18T03:48:08.546Z,0
2017-03-18T03:49:08.531Z,0
2017-03-18T03:50:07.889Z,0
2017-03-18T03:51:08.503Z,0
2017-03-18T03:52:07.859Z,0
2017-03-18T03:53:08.167Z,0
2017-03-18T03:54:08.146Z,0
2017-03-18T03:55:08.134Z,0
2017-03-18T03:56:08.116Z,0
2017-03-18T03:57:08.418Z,0
2017-03-18T03:58:08.093Z,0
2017-03-18T03:59:08.395Z,0
2017-03-18T04:00:08.068Z,0
2017-03-18T04:01:08.386Z,0
2017-03-18T04:02:08.038Z,0
2017-03-18T04:03:08.357Z,0
2017-03-18T04:04:08.325Z,0
2017-03-18T04:05:07.992Z,0
2017-03-18T04:06:08.283Z,0
2017-03-18T04:07:08.278Z,0
2017-03-18T04:08:08.266Z,0
2017-03-18T04:09:08.249Z,0
2017-03-18T04:10:07.606Z,0
2017-03-18T04:11:08.211Z,0
2017-03-18T04:12:07.577Z,0
2017-03-18T04:13:08.189Z,0
2017-03-18T04:14:08.177Z,0
2017-03-18T04:15:07.858Z,0
2017-03-18T04:16:08.149Z,0
2017-03-18T04:17:08.139Z,0
2017-03-18T04:18:08.121Z,0
2017-03-18T04:19:08.109Z,0
2017-03-18T04:20:07.776Z,0
2017-03-18T04:21:08.075Z,0
2017-03-18T04:22:08.067Z,0
2017-03-18T04:23:08.048Z,0
2017-03-18T04:24:08.032Z,0
2017-03-18T04:25:07.705Z,0
2017-03-18T04:26:08.001Z,0
2017-03-18T04:27:07.993Z,0
2017-03-18T04:28:07.970Z,0
2017-03-18T04:29:07.964Z,0
2017-03-18T04:30:07.632Z,0
2017-03-18T04:31:07.940Z,0
2017-03-18T04:32:07.922Z,0
2017-03-18T04:33:07.911Z,0
2017-03-18T04:34:07.892Z,0
2017-03-18T04:35:07.880Z,0
2017-03-18T04:36:07.551Z,0
2017-03-18T04:37:07.532Z,0
2017-03-18T04:38:07.528Z,0
2017-03-18T04:39:07.509Z,0
2017-03-18T04:40:07.486Z,0
2017-03-18T04:41:07.476Z,0
2017-03-18T04:42:07.777Z,0
2017-03-18T04:43:07.766Z,0
2017-03-18T04:44:07.752Z,0
2017-03-18T04:45:07.107Z,0
2017-03-18T04:46:07.751Z,0
2017-03-18T04:47:07.709Z,0
2017-03-18T04:48:07.695Z,0
2017-03-18T04:49:07.365Z,0
2017-03-18T04:50:07.058Z,0
2017-03-18T04:51:07.673Z,0
2017-03-18T04:52:07.630Z,0
2017-03-18T04:53:07.619Z,0
2017-03-18T04:54:07.607Z,0
2017-03-18T04:55:07.276Z,0
2017-03-18T04:56:07.580Z,0
2017-03-18T04:57:07.563Z,0
2017-03-18T04:58:07.237Z,0
2017-03-18T04:59:07.540Z,0
2017-03-18T05:00:07.215Z,0
2017-03-18T05:01:07.508Z,0
2017-03-18T05:02:07.505Z,0
2017-03-18T05:03:07.488Z,0
2017-03-18T05:04:07.478Z,0
2017-03-18T05:05:07.453Z,0
2017-03-18T05:06:07.122Z,0
2017-03-18T05:07:07.430Z,0
2017-03-18T05:08:07.429Z,0
2017-03-18T05:09:07.410Z,0
2017-03-18T05:10:07.388Z,0
2017-03-18T05:11:07.370Z,0
2017-03-18T05:12:07.050Z,0
2017-03-18T05:13:07.351Z,0
2017-03-18T05:14:07.024Z,0
2017-03-18T05:15:07.321Z,0
2017-03-18T05:16:06.981Z,0
2017-03-18T05:17:06.971Z,0
2017-03-18T05:18:07.279Z,0
2017-03-18T05:19:07.268Z,0
2017-03-18T05:20:07.252Z,0
2017-03-18T05:21:07.229Z,0
2017-03-18T05:22:06.911Z,0
2017-03-18T05:23:06.888Z,0
2017-03-18T05:24:06.882Z,0
2017-03-18T05:25:06.866Z,0
2017-03-18T05:26:06.842Z,0
2017-03-18T05:27:07.150Z,0
2017-03-18T05:28:06.820Z,5
2017-03-18T05:29:06.812Z,5
2017-03-18T05:30:07.110Z,0
2017-03-18T05:31:07.089Z,5
2017-03-18T05:32:06.479Z,5
2017-03-18T05:33:07.066Z,5
2017-03-18T05:34:07.049Z,5
2017-03-18T05:35:07.043Z,5
2017-03-18T05:36:06.701Z,5
2017-03-18T05:37:07.010Z,5
2017-03-18T05:38:06.997Z,5
2017-03-18T05:39:06.987Z,5
2017-03-18T05:40:06.974Z,5
2017-03-18T05:41:06.946Z,5
2017-03-18T05:42:06.623Z,5
2017-03-18T05:43:06.610Z,5
2017-03-18T05:44:06.925Z,10
2017-03-18T05:45:06.594Z,10
2017-03-18T05:46:06.881Z,10
2017-03-18T05:47:06.558Z,10
2017-03-18T05:48:06.860Z,10
2017-03-18T05:49:06.845Z,10
2017-03-18T05:50:06.828Z,10
2017-03-18T05:51:06.811Z,10
2017-03-18T05:52:06.499Z,10
2017-03-18T05:53:06.796Z,10
2017-03-18T05:54:06.779Z,10
2017-03-18T05:55:06.787Z,10
2017-03-18T05:56:06.752Z,15
2017-03-18T05:57:06.451Z,15
2017-03-18T05:58:06.719Z,15
2017-03-18T05:59:06.704Z,15
2017-03-18T06:00:06.376Z,15
2017-03-18T06:01:06.679Z,15
2017-03-18T06:02:06.656Z,15
2017-03-18T06:03:06.328Z,10
2017-03-18T06:04:06.636Z,15
2017-03-18T06:05:06.619Z,10
2017-03-18T06:06:06.293Z,15
2017-03-18T06:07:06.630Z,15
2017-03-18T06:08:06.582Z,10
2017-03-18T06:09:06.563Z,15
2017-03-18T06:10:06.250Z,15
2017-03-18T06:11:06.533Z,15
2017-03-18T06:12:06.208Z,15
2017-03-18T06:13:05.894Z,15
2017-03-18T06:14:06.492Z,15
2017-03-18T06:15:06.487Z,15
2017-03-18T06:16:06.162Z,15
2017-03-18T06:17:06.459Z,20
2017-03-18T06:18:06.444Z,20
2017-03-18T06:19:06.436Z,25
2017-03-18T06:20:06.095Z,25
2017-03-18T06:21:06.390Z,20
2017-03-18T06:22:06.068Z,20
2017-03-18T06:23:06.369Z,20
2017-03-18T06:24:06.043Z,20
2017-03-18T06:25:06.336Z,20
2017-03-18T06:26:06.324Z,20
2017-03-18T06:27:06.015Z,30
2017-03-18T06:28:06.305Z,25
2017-03-18T06:29:06.285Z,30
2017-03-18T06:30:06.279Z,30
2017-03-18T06:31:05.946Z,35
2017-03-18T06:32:06.239Z,30
2017-03-18T06:33:05.927Z,35
2017-03-18T06:34:06.225Z,35
2017-03-18T06:35:06.207Z,45
2017-03-18T06:36:05.878Z,35
2017-03-18T06:37:05.557Z,35
2017-03-18T06:38:05.541Z,35
2017-03-18T06:39:06.147Z,30
2017-03-18T06:40:06.128Z,30
2017-03-18T06:41:06.125Z,30
2017-03-18T06:42:05.790Z,30
2017-03-18T06:43:06.098Z,30
2017-03-18T06:44:05.772Z,35
2017-03-18T06:45:05.441Z,35
2017-03-18T06:46:06.046Z,45
2017-03-18T06:47:05.725Z,40
2017-03-18T06:48:06.028Z,35
2017-03-18T06:49:06.010Z,40
2017-03-18T06:50:05.681Z,45
2017-03-18T06:51:05.984Z,40
2017-03-18T06:52:05.968Z,35
2017-03-18T06:53:05.954Z,45
2017-03-18T06:54:05.943Z,45
2017-03-18T06:55:05.617Z,50
2017-03-18T06:56:05.666Z,60
2017-03-18T06:57:05.906Z,55
2017-03-18T06:58:05.882Z,45
2017-03-18T06:59:05.237Z,55
2017-03-18T07:00:05.543Z,50
2017-03-18T07:01:05.533Z,55
2017-03-18T07:02:05.515Z,50
2017-03-18T07:03:05.849Z,50
2017-03-18T07:04:05.489Z,50
2017-03-18T07:05:05.789Z,45
2017-03-18T07:06:05.458Z,45
2017-03-18T07:07:05.768Z,45
2017-03-18T07:08:05.754Z,55
2017-03-18T07:09:05.417Z,50
2017-03-18T07:10:05.924Z,50
2017-03-18T07:11:05.811Z,55
2017-03-18T07:12:05.377Z,50
2017-03-18T07:13:05.679Z,50
2017-03-18T07:14:05.664Z,45
2017-03-18T07:15:05.651Z,60
2017-03-18T07:16:05.644Z,50
2017-03-18T07:17:05.625Z,55
2017-03-18T07:18:05.607Z,50
2017-03-18T07:19:05.596Z,50
2017-03-18T07:20:05.579Z,40
2017-03-18T07:21:05.938Z,50
2017-03-18T07:22:05.549Z,45
2017-03-18T07:23:05.543Z,50
2017-03-18T07:24:05.684Z,40
2017-03-18T07:25:05.514Z,50
2017-03-18T07:26:05.981Z,40
2017-03-18T07:27:05.476Z,50
2017-03-18T07:28:05.479Z,45
2017-03-18T07:29:04.839Z,50
2017-03-18T07:30:05.442Z,55
2017-03-18T07:31:05.421Z,60
2017-03-18T07:32:05.408Z,60
2017-03-18T07:33:05.400Z,45
2017-03-18T07:34:05.073Z,60
2017-03-18T07:35:04.743Z,55
2017-03-18T07:36:05.350Z,60
2017-03-18T07:37:05.022Z,55
2017-03-18T07:38:05.325Z,50
2017-03-18T07:39:05.313Z,55
2017-03-18T07:40:04.673Z,50
2017-03-18T07:41:05.280Z,50
2017-03-18T07:42:04.961Z,60
2017-03-18T07:43:05.267Z,65
2017-03-18T07:44:04.936Z,55
2017-03-18T07:45:05.235Z,55
2017-03-18T07:46:04.930Z,70
2017-03-18T07:47:05.206Z,65
2017-03-18T07:48:05.202Z,75
2017-03-18T07:49:04.569Z,60
2017-03-18T07:50:04.231Z,60
2017-03-18T07:51:05.154Z,65
2017-03-18T07:52:05.137Z,60
2017-03-18T07:53:05.119Z,60
2017-03-18T07:54:05.116Z,60
2017-03-18T07:55:05.090Z,55
2017-03-18T07:56:05.082Z,70
2017-03-18T07:57:04.752Z,80
2017-03-18T07:58:05.055Z,75
2017-03-18T07:59:05.045Z,80
2017-03-18T08:00:05.022Z,95
2017-03-18T08:01:04.693Z,75
2017-03-18T08:02:04.994Z,80
2017-03-18T08:03:04.990Z,80
2017-03-18T08:04:04.975Z,85
2017-03-18T08:05:04.645Z,85
2017-03-18T08:06:04.952Z,90
2017-03-18T08:07:04.620Z,85
2017-03-18T08:08:04.922Z,75
2017-03-18T08:09:04.907Z,75
2017-03-18T08:10:04.891Z,60
2017-03-18T08:11:04.872Z,75
2017-03-18T08:12:04.554Z,60
2017-03-18T08:13:04.849Z,65
2017-03-18T08:14:04.836Z,60
2017-03-18T08:15:04.822Z,85
2017-03-18T08:16:04.812Z,80
2017-03-18T08:17:04.798Z,90
2017-03-18T08:18:04.799Z,85
2017-03-18T08:19:04.729Z,90
2017-03-18T08:20:04.758Z,75
2017-03-18T08:21:04.145Z,75
2017-03-18T08:22:04.723Z,75
2017-03-18T08:23:04.411Z,70
2017-03-18T08:24:04.741Z,75
2017-03-18T08:25:04.698Z,85
2017-03-18T08:26:04.669Z,75
2017-03-18T08:27:04.661Z,75
2017-03-18T08:28:04.331Z,70
2017-03-18T08:29:04.326Z,70
2017-03-18T08:30:04.626Z,80
2017-03-18T08:31:04.598Z,75
2017-03-18T08:32:04.596Z,65
2017-03-18T08:33:04.585Z,75
2017-03-18T08:34:04.259Z,70
2017-03-18T08:35:04.242Z,60
2017-03-18T08:36:04.536Z,60
2017-03-18T08:37:04.537Z,75
2017-03-18T08:38:04.520Z,65
2017-03-18T08:39:04.497Z,90
2017-03-18T08:40:04.176Z,105
2017-03-18T08:41:04.156Z,90
2017-03-18T08:42:04.461Z,90
2017-03-18T08:43:04.158Z,80
2017-03-18T08:44:04.433Z,70
2017-03-18T08:45:04.428Z,115
2017-03-18T08:46:04.088Z,105
2017-03-18T08:47:04.425Z,100
2017-03-18T08:48:04.074Z,95
2017-03-18T08:49:04.371Z,90
2017-03-18T08:50:04.352Z,85
2017-03-18T08:51:04.335Z,90
2017-03-18T08:52:04.320Z,115
2017-03-18T08:53:04.005Z,140
2017-03-18T08:54:04.312Z,125
2017-03-18T08:55:04.294Z,120
2017-03-18T08:56:03.330Z,120
2017-03-18T08:57:04.260Z,90
2017-03-18T08:58:04.255Z,90
2017-03-18T08:59:03.920Z,105
2017-03-18T09:00:04.226Z,115
2017-03-18T09:01:03.889Z,165
2017-03-18T09:02:03.902Z,165
2017-03-18T09:03:04.186Z,165
2017-03-18T09:04:03.858Z,135
2017-03-18T09:05:04.163Z,125
2017-03-18T09:06:03.828Z,135
2017-03-18T09:07:03.183Z,165
2017-03-18T09:08:03.803Z,175
2017-03-18T09:09:04.109Z,160
2017-03-18T09:10:03.781Z,130
2017-03-18T09:11:03.799Z,115
2017-03-18T09:12:03.748Z,120
2017-03-18T09:13:03.921Z,145
2017-03-18T09:14:03.729Z,155
2017-03-18T09:15:04.025Z,115
2017-03-18T09:16:03.699Z,100
2017-03-18T09:17:04.038Z,95
2017-03-18T09:18:03.673Z,105
2017-03-18T09:19:03.663Z,115
2017-03-18T09:20:03.653Z,115
2017-03-18T09:21:03.635Z,100
2017-03-18T09:22:03.626Z,95
2017-03-18T09:23:03.929Z,105
2017-03-18T09:24:03.921Z,90
2017-03-18T09:25:03.907Z,85
2017-03-18T09:26:03.577Z,95
2017-03-18T09:27:03.555Z,85
2017-03-18T09:28:03.869Z,80
2017-03-18T09:29:03.536Z,95
2017-03-18T09:30:03.861Z,80
2017-03-18T09:31:03.543Z,75
2017-03-18T09:32:03.491Z,75
2017-03-18T09:33:03.807Z,75
2017-03-18T09:34:03.472Z,70
2017-03-18T09:35:03.774Z,70
2017-03-18T09:36:03.447Z,70
2017-03-18T09:37:03.750Z,65
2017-03-18T09:38:03.737Z,75
2017-03-18T09:39:03.733Z,65
2017-03-18T09:40:03.090Z,65
2017-03-18T09:41:03.701Z,65
2017-03-18T09:42:03.677Z,65
2017-03-18T09:43:03.365Z,65
2017-03-18T09:44:03.661Z,65
2017-03-18T09:45:03.015Z,70
2017-03-18T09:46:03.317Z,60
2017-03-18T09:47:03.618Z,70
2017-03-18T09:48:03.618Z,60
2017-03-18T09:49:03.598Z,70
2017-03-18T09:50:03.287Z,75
2017-03-18T09:51:03.565Z,75
2017-03-18T09:52:03.553Z,65
2017-03-18T09:53:03.230Z,65
2017-03-18T09:54:03.531Z,65
2017-03-18T09:55:03.527Z,65
2017-03-18T09:56:03.498Z,60
2017-03-18T09:57:03.493Z,65
2017-03-18T09:58:03.170Z,70
2017-03-18T09:59:03.154Z,70
2017-03-18T10:00:03.458Z,75
2017-03-18T10:01:03.438Z,75
2017-03-18T10:02:03.119Z,80
2017-03-18T10:03:03.101Z,85
2017-03-18T10:04:03.415Z,70
2017-03-18T10:05:03.070Z,75
2017-03-18T10:06:03.089Z,65
2017-03-18T10:07:03.362Z,65
2017-03-18T10:08:03.039Z,75
2017-03-18T10:09:02.710Z,70
2017-03-18T10:10:03.331Z,70
2017-03-18T10:11:02.994Z,80
2017-03-18T10:12:02.986Z,70
2017-03-18T10:13:03.296Z,65
2017-03-18T10:14:02.967Z,70
2017-03-18T10:15:02.640Z,70
2017-03-18T10:16:03.251Z,70
2017-03-18T10:17:02.922Z,70
2017-03-18T10:18:03.222Z,65
2017-03-18T10:19:02.908Z,65
2017-03-18T10:20:02.921Z,70
2017-03-18T10:21:02.873Z,65
2017-03-18T10:22:03.174Z,60
2017-03-18T10:23:03.168Z,60
2017-03-18T10:24:03.161Z,55
2017-03-18T10:25:03.145Z,60
2017-03-18T10:26:03.131Z,65
2017-03-18T10:27:03.106Z,60
2017-03-18T10:28:02.795Z,65
2017-03-18T10:29:02.781Z,60
2017-03-18T10:30:03.078Z,70
2017-03-18T10:31:02.747Z,75
2017-03-18T10:32:03.044Z,70
2017-03-18T10:33:03.042Z,65
2017-03-18T10:34:02.709Z,60
2017-03-18T10:35:02.382Z,55
2017-03-18T10:36:02.682Z,45
2017-03-18T10:37:02.672Z,45
2017-03-18T10:38:02.670Z,45
2017-03-18T10:39:02.667Z,45
2017-03-18T10:40:02.632Z,40
2017-03-18T10:41:01.986Z,35
2017-03-18T10:42:02.304Z,40
2017-03-18T10:43:02.918Z,40
2017-03-18T10:44:02.904Z,40
2017-03-18T10:45:02.888Z,35
2017-03-18T10:46:02.570Z,30
2017-03-18T10:47:02.858Z,30
2017-03-18T10:48:02.539Z,30
2017-03-18T10:49:02.844Z,35
2017-03-18T10:50:02.510Z,50
2017-03-18T10:51:02.495Z,60
2017-03-18T10:52:02.799Z,65
2017-03-18T10:53:02.167Z,55
2017-03-18T10:54:02.469Z,45
2017-03-18T10:55:02.457Z,55
2017-03-18T10:56:02.432Z,70
2017-03-18T10:57:02.760Z,60
2017-03-18T10:58:02.422Z,50
2017-03-18T10:59:02.503Z,45
2017-03-18T11:00:02.699Z,50
2017-03-18T11:01:02.715Z,45
2017-03-18T11:02:02.680Z,55
